Time;durP1;ratioP1;P1;durP2;ratioP2;P2;SDS_P1;SDS_P2;PMS_P1;PMS_P2;Temp;Humidity;BMP_temperature;BMP_pressure;BME280_temperature;BME280_humidity;BME280_pressure;Samples;Min_cycle;Max_cycle;Signal;HPM_P1;HPM_P2
2021/08/24 00:00:28;;;;;;;12.20;6.53;;;;;;;;;;5094072;28;20020;-74
2021/08/24 00:02:54;;;;;;;7.80;7.00;;;;;;;;;;5094019;28;20051;-74
2021/08/24 00:05:23;;;;;;;7.18;5.90;;;;;;;;;;5093933;28;20028;-74
2021/08/24 00:07:52;;;;;;;7.60;5.90;;;;;;;;;;5094135;28;20035;-74
2021/08/24 00:10:18;;;;;;;8.00;7.07;;;;;;;;;;5093883;28;20051;-74
2021/08/24 00:12:44;;;;;;;9.15;6.10;;;;;;;;;;5094055;28;20020;-74
2021/08/24 00:15:11;;;;;;;7.05;6.38;;;;;;;;;;5093765;28;20024;-74
2021/08/24 00:17:37;;;;;;;6.70;6.10;;;;;;;;;;5094049;28;20032;-74
2021/08/24 00:20:04;;;;;;;7.13;6.38;;;;;;;;;;5093743;28;20064;-74
2021/08/24 00:22:30;;;;;;;8.93;6.80;;;;;;;;;;5093961;28;20024;-74
2021/08/24 00:24:56;;;;;;;12.70;7.00;;;;;;;;;;5093864;28;20036;-74
2021/08/24 00:27:22;;;;;;;6.97;6.18;;;;;;;;;;5093518;28;20462;-74
2021/08/24 00:29:48;;;;;;;6.88;6.18;;;;;;;;;;5093828;28;20075;-74
2021/08/24 00:32:14;;;;;;;8.13;6.35;;;;;;;;;;5093924;28;20056;-74
2021/08/24 00:34:40;;;;;;;9.82;6.28;;;;;;;;;;5094175;28;20445;-74
2021/08/24 00:37:06;;;;;;;7.78;7.03;;;;;;;;;;5093900;28;20369;-74
2021/08/24 00:39:32;;;;;;;8.10;7.13;;;;;;;;;;5093628;28;20121;-74
2021/08/24 00:41:58;;;;;;;8.13;6.88;;;;;;;;;;5093996;28;20024;-74
2021/08/24 00:44:24;;;;;;;7.07;5.95;;;;;;;;;;5093513;28;20078;-74
2021/08/24 00:46:51;;;;;;;6.47;5.88;;;;;;;;;;5093773;28;20020;-74
2021/08/24 00:49:18;;;;;;;6.43;5.82;;;;;;;;;;5093280;28;20401;-74
2021/08/24 00:51:45;;;;;;;6.72;5.57;;;;;;;;;;5093844;28;20132;-74
2021/08/24 00:54:12;;;;;;;7.72;6.00;;;;;;;;;;5093876;28;20016;-74
2021/08/24 00:56:38;;;;;;;9.63;5.38;;;;;;;;;;5093424;28;20044;-74
2021/08/24 00:59:04;;;;;;;9.60;5.88;;;;;;;;;;5097052;28;20027;-74
2021/08/24 01:01:30;;;;;;;11.93;6.20;;;;;;;;;;5097275;28;20028;-74
2021/08/24 01:03:56;;;;;;;6.85;5.85;;;;;;;;;;5097993;28;20533;-74
2021/08/24 01:06:24;;;;;;;6.32;5.72;;;;;;;;;;5097648;28;20024;-74
2021/08/24 01:08:55;;;;;;;15.35;5.72;;;;;;;;;;5096895;28;20487;-74
2021/08/24 01:11:28;;;;;;;8.03;5.03;;;;;;;;;;5097054;28;20032;-74
2021/08/24 01:14:14;;;;;;;6.82;5.95;;;;;;;;;;5096652;28;20113;-74
2021/08/24 01:16:41;;;;;;;8.52;6.03;;;;;;;;;;5082244;28;20527;-74
2021/08/24 01:19:27;;;;;;;8.13;5.43;;;;;;;;;;5096717;28;20036;-74
2021/08/24 01:22:02;;;;;;;6.43;5.75;;;;;;;;;;5081999;28;20474;-74
2021/08/24 01:24:36;;;;;;;5.88;5.38;;;;;;;;;;5097312;28;20024;-74
2021/08/24 01:27:10;;;;;;;7.03;5.22;;;;;;;;;;5097025;28;20054;-74
2021/08/24 01:29:38;;;;;;;5.45;4.88;;;;;;;;;;5096627;28;20070;-74
2021/08/24 01:32:08;;;;;;;6.22;5.63;;;;;;;;;;5096816;28;20024;-74
2021/08/24 01:34:46;;;;;;;6.50;5.10;;;;;;;;;;5096415;28;20358;-74
2021/08/24 01:37:20;;;;;;;5.57;5.07;;;;;;;;;;5096403;28;20028;-75
2021/08/24 01:39:47;;;;;;;6.10;5.32;;;;;;;;;;5096829;28;20051;-74
2021/08/24 01:42:17;;;;;;;6.60;5.13;;;;;;;;;;5096538;28;20053;-74
2021/08/24 01:44:46;;;;;;;5.88;4.82;;;;;;;;;;5096738;28;20035;-74
2021/08/24 01:47:23;;;;;;;6.47;4.50;;;;;;;;;;5095821;28;20070;-74
2021/08/24 01:49:51;;;;;;;4.78;4.30;;;;;;;;;;5096658;28;20050;-74
2021/08/24 01:52:18;;;;;;;6.43;5.82;;;;;;;;;;5096665;28;20020;-74
2021/08/24 01:54:46;;;;;;;6.53;5.93;;;;;;;;;;5096513;28;20102;-74
2021/08/24 01:57:15;;;;;;;5.43;4.85;;;;;;;;;;5095966;28;20073;-75
2021/08/24 01:59:46;;;;;;;11.38;5.05;;;;;;;;;;5095807;28;20032;-74
2021/08/24 02:02:12;;;;;;;5.25;4.75;;;;;;;;;;5096624;28;20016;-73
2021/08/24 02:04:42;;;;;;;5.53;5.03;;;;;;;;;;5096141;28;20024;-74
2021/08/24 02:07:08;;;;;;;5.68;5.10;;;;;;;;;;5095979;28;20020;-73
2021/08/24 02:09:51;;;;;;;5.85;5.35;;;;;;;;;;5094416;28;20031;-74
2021/08/24 02:12:18;;;;;;;7.07;4.57;;;;;;;;;;5095594;28;20030;-74
2021/08/24 02:14:44;;;;;;;5.13;4.72;;;;;;;;;;5095758;28;20028;-74
2021/08/24 02:17:11;;;;;;;6.63;5.65;;;;;;;;;;5095771;28;20020;-74
2021/08/24 02:19:40;;;;;;;5.20;4.57;;;;;;;;;;5095963;28;20032;-74
2021/08/24 02:22:08;;;;;;;5.65;4.70;;;;;;;;;;5095458;28;20417;-74
2021/08/24 02:24:35;;;;;;;4.88;4.47;;;;;;;;;;5095783;28;20035;-74
2021/08/24 02:27:02;;;;;;;17.00;4.88;;;;;;;;;;5095627;28;20036;-74
2021/08/24 02:29:28;;;;;;;7.53;4.80;;;;;;;;;;5095563;28;20056;-74
2021/08/24 02:32:00;;;;;;;6.55;5.20;;;;;;;;;;5095665;28;20020;-74
2021/08/24 02:34:35;;;;;;;4.85;4.45;;;;;;;;;;5095583;28;20044;-74
2021/08/24 02:37:06;;;;;;;4.85;4.00;;;;;;;;;;5095529;28;20081;-74
2021/08/24 02:39:38;;;;;;;10.25;4.82;;;;;;;;;;5094882;28;20035;-74
2021/08/24 02:42:08;;;;;;;4.78;4.30;;;;;;;;;;5095968;28;20020;-74
2021/08/24 02:44:38;;;;;;;5.45;4.82;;;;;;;;;;5095346;28;20385;-74
2021/08/24 02:47:04;;;;;;;6.70;4.70;;;;;;;;;;5095532;28;20129;-74
2021/08/24 02:49:30;;;;;;;7.35;4.85;;;;;;;;;;5094944;28;20059;-74
2021/08/24 02:51:57;;;;;;;8.13;4.40;;;;;;;;;;5095348;28;20106;-73
2021/08/24 02:54:24;;;;;;;4.53;4.13;;;;;;;;;;5095450;28;20036;-74
2021/08/24 02:56:50;;;;;;;4.57;3.63;;;;;;;;;;5094971;28;20409;-74
2021/08/24 02:59:17;;;;;;;5.03;4.32;;;;;;;;;;5094830;28;20097;-74
2021/08/24 03:01:43;;;;;;;6.88;4.43;;;;;;;;;;5095130;28;20030;-74
2021/08/24 03:04:09;;;;;;;4.93;4.35;;;;;;;;;;5094937;28;20063;-74
2021/08/24 03:06:36;;;;;;;4.95;4.45;;;;;;;;;;5094775;28;20473;-74
2021/08/24 03:09:02;;;;;;;4.63;4.22;;;;;;;;;;5094849;28;20031;-74
2021/08/24 03:11:29;;;;;;;4.97;4.47;;;;;;;;;;5094819;28;20020;-73
2021/08/24 03:13:57;;;;;;;4.60;4.20;;;;;;;;;;5094955;28;20081;-74
2021/08/24 03:16:26;;;;;;;4.90;4.50;;;;;;;;;;5094592;28;20107;-74
2021/08/24 03:18:53;;;;;;;6.53;4.95;;;;;;;;;;5094524;28;20016;-74
2021/08/24 03:21:20;;;;;;;4.22;3.83;;;;;;;;;;5093537;28;20031;-74
2021/08/24 03:23:46;;;;;;;4.82;4.35;;;;;;;;;;5095190;28;20314;-74
2021/08/24 03:26:12;;;;;;;12.73;4.95;;;;;;;;;;5094417;28;20024;-74
2021/08/24 03:28:40;;;;;;;5.13;4.63;;;;;;;;;;5094762;28;20050;-74
2021/08/24 03:31:06;;;;;;;5.18;4.28;;;;;;;;;;5094554;28;20020;-73
2021/08/24 03:33:32;;;;;;;4.18;3.83;;;;;;;;;;5094422;28;20028;-74
2021/08/24 03:35:58;;;;;;;5.30;4.80;;;;;;;;;;5094180;28;20020;-74
2021/08/24 03:38:24;;;;;;;6.97;4.30;;;;;;;;;;5094861;28;20024;-74
2021/08/24 03:40:50;;;;;;;4.53;4.13;;;;;;;;;;5094501;28;20039;-74
2021/08/24 03:43:17;;;;;;;4.82;4.32;;;;;;;;;;5094176;28;20043;-74
2021/08/24 03:45:43;;;;;;;4.97;4.53;;;;;;;;;;5094517;28;20555;-74
2021/08/24 03:48:09;;;;;;;4.30;3.90;;;;;;;;;;5094517;28;20024;-74
2021/08/24 03:50:35;;;;;;;4.15;3.80;;;;;;;;;;5094211;28;20024;-74
2021/08/24 03:53:01;;;;;;;5.82;4.65;;;;;;;;;;5094373;28;20032;-74
2021/08/24 03:55:27;;;;;;;5.25;4.60;;;;;;;;;;5093943;28;20066;-73
2021/08/24 03:57:53;;;;;;;5.70;3.92;;;;;;;;;;5093898;28;20423;-73
2021/08/24 04:00:19;;;;;;;4.85;4.38;;;;;;;;;;5093965;28;20051;-74
2021/08/24 04:02:45;;;;;;;4.18;3.85;;;;;;;;;;5094044;28;20046;-74
2021/08/24 04:05:11;;;;;;;4.25;3.95;;;;;;;;;;5093805;28;20055;-74
2021/08/24 04:07:37;;;;;;;4.88;4.38;;;;;;;;;;5094847;28;20456;-74
2021/08/24 04:10:04;;;;;;;4.07;3.72;;;;;;;;;;5094021;28;20039;-74
2021/08/24 04:12:30;;;;;;;4.03;3.53;;;;;;;;;;5094270;28;20031;-74
2021/08/24 04:14:56;;;;;;;4.32;3.92;;;;;;;;;;5094362;28;20031;-74
2021/08/24 04:17:22;;;;;;;5.35;4.38;;;;;;;;;;5093654;28;20377;-74
2021/08/24 04:19:48;;;;;;;4.57;4.18;;;;;;;;;;5093711;28;20112;-74
2021/08/24 04:22:18;;;;;;;4.93;4.50;;;;;;;;;;5094090;28;20036;-74
2021/08/24 04:24:44;;;;;;;4.47;4.07;;;;;;;;;;5094241;28;20141;-74
2021/08/24 04:27:10;;;;;;;4.55;4.15;;;;;;;;;;5093743;28;20024;-74
2021/08/24 04:29:36;;;;;;;4.78;4.28;;;;;;;;;;5093629;28;20063;-74
2021/08/24 04:32:02;;;;;;;4.22;3.85;;;;;;;;;;5094749;28;20343;-75
2021/08/24 04:34:29;;;;;;;4.20;3.83;;;;;;;;;;5097775;28;20457;-75
2021/08/24 04:36:55;;;;;;;3.70;3.40;;;;;;;;;;5097904;28;20127;-74
2021/08/24 04:39:21;;;;;;;4.80;4.32;;;;;;;;;;5097430;28;20035;-74
2021/08/24 04:41:47;;;;;;;4.30;3.92;;;;;;;;;;5097702;28;20028;-74
2021/08/24 04:44:13;;;;;;;3.92;3.53;;;;;;;;;;5097711;28;20031;-74
2021/08/24 04:46:39;;;;;;;4.03;3.67;;;;;;;;;;5097656;28;20537;-74
2021/08/24 04:49:05;;;;;;;3.90;3.50;;;;;;;;;;5097432;28;20462;-74
2021/08/24 04:51:31;;;;;;;3.95;3.55;;;;;;;;;;5096975;28;20470;-74
2021/08/24 04:53:57;;;;;;;3.97;3.58;;;;;;;;;;5097941;28;20028;-74
2021/08/24 04:56:23;;;;;;;3.75;3.30;;;;;;;;;;5097446;28;20055;-75
2021/08/24 04:58:49;;;;;;;11.80;3.90;;;;;;;;;;5097521;28;20058;-75
2021/08/24 05:01:15;;;;;;;4.18;3.78;;;;;;;;;;5097156;28;20039;-75
2021/08/24 05:03:41;;;;;;;4.88;3.58;;;;;;;;;;5097448;28;20442;-76
2021/08/24 05:06:07;;;;;;;3.95;3.65;;;;;;;;;;5097667;28;20404;-75
2021/08/24 05:08:33;;;;;;;4.28;3.88;;;;;;;;;;5097191;28;20020;-72
2021/08/24 05:10:59;;;;;;;4.05;3.72;;;;;;;;;;5104226;28;20045;-71
2021/08/24 05:13:25;;;;;;;3.50;3.20;;;;;;;;;;5116952;28;20369;-73
2021/08/24 05:15:51;;;;;;;3.88;3.55;;;;;;;;;;5103938;28;20492;-73
2021/08/24 05:18:17;;;;;;;4.95;3.63;;;;;;;;;;5098123;28;20024;-72
2021/08/24 05:20:44;;;;;;;4.60;4.20;;;;;;;;;;5096839;28;20045;-74
2021/08/24 05:23:10;;;;;;;7.57;3.70;;;;;;;;;;5097421;28;20020;-74
2021/08/24 05:25:36;;;;;;;3.92;3.63;;;;;;;;;;5095747;28;20031;-75
2021/08/24 05:28:02;;;;;;;7.22;3.33;;;;;;;;;;5097011;28;20046;-74
2021/08/24 05:30:28;;;;;;;4.15;3.58;;;;;;;;;;5096772;28;20024;-72
2021/08/24 05:32:54;;;;;;;3.28;2.97;;;;;;;;;;5096960;28;20428;-78
2021/08/24 05:35:21;;;;;;;7.43;3.33;;;;;;;;;;5096193;28;20350;-76
2021/08/24 05:37:47;;;;;;;3.55;3.25;;;;;;;;;;5097216;28;20032;-75
2021/08/24 05:40:13;;;;;;;3.20;2.92;;;;;;;;;;5096661;28;20523;-76
2021/08/24 05:42:39;;;;;;;4.22;3.30;;;;;;;;;;5096808;28;20096;-73
2021/08/24 05:45:06;;;;;;;3.80;3.47;;;;;;;;;;5095568;28;20081;-73
2021/08/24 05:47:32;;;;;;;3.30;3.00;;;;;;;;;;5096283;28;20145;-75
2021/08/24 05:49:59;;;;;;;3.20;3.00;;;;;;;;;;5096660;28;20031;-79
2021/08/24 05:52:25;;;;;;;5.00;3.22;;;;;;;;;;5096863;28;20020;-79
2021/08/24 05:54:51;;;;;;;3.92;3.20;;;;;;;;;;5095816;28;20063;-74
2021/08/24 05:57:17;;;;;;;4.05;3.65;;;;;;;;;;5116747;28;20043;-77
2021/08/24 05:59:43;;;;;;;3.40;3.10;;;;;;;;;;5116451;28;20031;-73
2021/08/24 06:02:09;;;;;;;3.10;2.63;;;;;;;;;;5116766;28;20392;-73
2021/08/24 06:04:36;;;;;;;5.65;3.10;;;;;;;;;;5114608;28;20034;-74
2021/08/24 06:07:02;;;;;;;5.22;3.47;;;;;;;;;;5116809;28;20024;-74
2021/08/24 06:09:28;;;;;;;3.67;3.38;;;;;;;;;;5116521;28;20102;-73
2021/08/24 06:11:54;;;;;;;3.95;3.65;;;;;;;;;;5116758;28;20557;-72
2021/08/24 06:14:21;;;;;;;4.32;3.92;;;;;;;;;;5116457;28;20031;-76
2021/08/24 06:16:54;;;;;;;5.72;3.20;;;;;;;;;;5095232;28;20048;-71
2021/08/24 06:19:20;;;;;;;4.78;2.67;;;;;;;;;;5095988;28;20095;-76
2021/08/24 06:21:46;;;;;;;3.83;3.35;;;;;;;;;;5096709;28;20084;-71
2021/08/24 06:24:12;;;;;;;9.10;3.70;;;;;;;;;;5095953;28;20473;-76
2021/08/24 06:26:38;;;;;;;3.58;3.28;;;;;;;;;;5094499;28;20020;-71
2021/08/24 06:29:04;;;;;;;8.63;3.40;;;;;;;;;;5095860;28;20016;-74
2021/08/24 06:31:31;;;;;;;3.70;3.40;;;;;;;;;;5095186;28;20051;-74
2021/08/24 06:33:57;;;;;;;8.82;3.22;;;;;;;;;;5095851;28;20031;-73
2021/08/24 06:36:23;;;;;;;4.50;3.50;;;;;;;;;;5094375;28;20020;-73
2021/08/24 06:38:49;;;;;;;9.25;3.13;;;;;;;;;;5095677;28;20358;-72
2021/08/24 06:41:16;;;;;;;4.07;3.58;;;;;;;;;;5093589;28;20059;-76
2021/08/24 06:43:42;;;;;;;8.90;4.00;;;;;;;;;;5100994;28;20024;-70
2021/08/24 06:46:08;;;;;;;6.95;3.85;;;;;;;;;;5093617;28;20028;-70
2021/08/24 06:48:34;;;;;;;5.47;3.78;;;;;;;;;;5094906;28;20099;-78
2021/08/24 06:51:00;;;;;;;7.00;3.78;;;;;;;;;;5095518;28;20485;-79
2021/08/24 06:53:26;;;;;;;3.78;3.33;;;;;;;;;;5094973;28;20427;-80
2021/08/24 06:55:52;;;;;;;4.60;3.53;;;;;;;;;;5094714;28;20059;-77
2021/08/24 06:58:19;;;;;;;6.68;3.55;;;;;;;;;;5094953;28;20050;-78
2021/08/24 07:00:45;;;;;;;10.25;4.00;;;;;;;;;;5094889;28;20110;-79
2021/08/24 07:03:13;;;;;;;5.50;4.10;;;;;;;;;;5095068;28;20027;-78
2021/08/24 07:05:40;;;;;;;7.65;3.80;;;;;;;;;;5094363;28;20381;-79
2021/08/24 07:08:07;;;;;;;3.63;3.33;;;;;;;;;;5094879;28;20028;-79
2021/08/24 07:10:33;;;;;;;7.60;4.18;;;;;;;;;;5094688;28;20060;-79
2021/08/24 07:12:59;;;;;;;8.95;4.43;;;;;;;;;;5095008;28;20486;-78
2021/08/24 07:15:25;;;;;;;7.68;4.13;;;;;;;;;;5094526;28;20028;-76
2021/08/24 07:17:52;;;;;;;9.93;4.18;;;;;;;;;;5095254;28;20028;-77
2021/08/24 07:20:19;;;;;;;4.43;4.00;;;;;;;;;;5092036;28;20040;-78
2021/08/24 07:22:45;;;;;;;12.63;4.53;;;;;;;;;;5092243;28;20473;-75
2021/08/24 07:25:12;;;;;;;7.32;4.55;;;;;;;;;;5093752;28;20055;-79
2021/08/24 07:27:38;;;;;;;7.55;4.05;;;;;;;;;;5092724;28;20032;-75
2021/08/24 07:30:04;;;;;;;10.52;4.72;;;;;;;;;;5112374;28;20145;-75
2021/08/24 07:32:31;;;;;;;16.67;4.72;;;;;;;;;;5105209;28;20436;-79
2021/08/24 07:34:57;;;;;;;9.15;5.20;;;;;;;;;;5095265;28;20503;-79
2021/08/24 07:37:23;;;;;;;15.15;4.13;;;;;;;;;;5094377;28;20362;-78
2021/08/24 07:39:49;;;;;;;6.38;4.90;;;;;;;;;;5094597;28;20122;-78
2021/08/24 07:42:15;;;;;;;11.65;5.60;;;;;;;;;;5093506;28;20039;-77
2021/08/24 07:44:41;;;;;;;11.75;4.70;;;;;;;;;;5094321;28;20462;-77
2021/08/24 07:47:07;;;;;;;6.95;5.15;;;;;;;;;;5091966;28;20434;-77
2021/08/24 07:49:35;;;;;;;8.00;6.30;;;;;;;;;;5088412;28;20085;-77
2021/08/24 07:52:05;;;;;;;10.85;5.78;;;;;;;;;;5094525;28;20020;-76
2021/08/24 07:54:31;;;;;;;8.70;6.15;;;;;;;;;;5095557;28;20520;-77
2021/08/24 07:56:57;;;;;;;9.02;6.07;;;;;;;;;;5094930;28;20055;-78
2021/08/24 07:59:23;;;;;;;8.65;5.90;;;;;;;;;;5094311;28;20020;-77
2021/08/24 08:01:51;;;;;;;7.15;4.50;;;;;;;;;;5096329;28;20384;-78
2021/08/24 08:04:19;;;;;;;6.03;4.93;;;;;;;;;;5095510;28;20026;-79
2021/08/24 08:06:45;;;;;;;9.77;5.30;;;;;;;;;;5095934;28;20024;-79
2021/08/24 08:09:11;;;;;;;7.88;5.78;;;;;;;;;;5098939;28;20030;-77
2021/08/24 08:11:38;;;;;;;6.50;5.32;;;;;;;;;;5100104;28;20020;-79
2021/08/24 08:14:04;;;;;;;6.20;5.03;;;;;;;;;;5098953;28;20020;-79
2021/08/24 08:16:30;;;;;;;6.45;5.63;;;;;;;;;;5099073;28;20024;-77
2021/08/24 08:18:56;;;;;;;7.13;5.40;;;;;;;;;;5098115;28;20031;-76
2021/08/24 08:21:22;;;;;;;29.73;6.45;;;;;;;;;;5098190;28;20431;-77
2021/08/24 08:23:48;;;;;;;13.30;6.65;;;;;;;;;;5098739;28;20484;-72
2021/08/24 08:26:14;;;;;;;9.50;5.90;;;;;;;;;;5097432;28;20373;-73
2021/08/24 08:28:41;;;;;;;10.43;6.25;;;;;;;;;;5097094;28;20032;-75
2021/08/24 08:31:08;;;;;;;9.95;7.05;;;;;;;;;;5097518;28;20054;-75
2021/08/24 08:33:34;;;;;;;6.55;5.80;;;;;;;;;;5096995;28;20544;-75
2021/08/24 08:36:00;;;;;;;6.63;5.75;;;;;;;;;;5099139;28;20024;-75
2021/08/24 08:38:26;;;;;;;5.80;4.32;;;;;;;;;;5097636;28;20032;-75
2021/08/24 08:40:54;;;;;;;4.53;4.13;;;;;;;;;;5099003;28;20077;-80
2021/08/24 08:43:28;;;;;;;4.60;4.20;;;;;;;;;;5097900;28;20039;-78
2021/08/24 08:45:54;;;;;;;5.57;3.22;;;;;;;;;;5097682;28;20493;-77
2021/08/24 08:48:38;;;;;;;3.50;3.20;;;;;;;;;;5097085;28;20450;-77
2021/08/24 08:51:07;;;;;;;6.40;3.65;;;;;;;;;;5097692;28;20028;-76
2021/08/24 08:53:50;;;;;;;3.47;3.15;;;;;;;;;;5097740;28;20024;-80
2021/08/24 08:56:34;;;;;;;7.05;4.03;;;;;;;;;;5098330;28;20491;-78
2021/08/24 08:59:05;;;;;;;4.70;3.92;;;;;;;;;;5098670;28;20027;-79
2021/08/24 09:01:35;;;;;;;4.03;3.63;;;;;;;;;;5097968;28;20043;-78
2021/08/24 09:04:17;;;;;;;3.40;3.10;;;;;;;;;;5098801;28;20031;-79
2021/08/24 09:06:43;;;;;;;;;;;;;;;;;;5098848;28;20089;-78
2021/08/24 09:09:09;;;;;;;4.40;4.00;;;;;;;;;;5099948;28;19907;-86
2021/08/24 09:11:37;;;;;;;4.90;4.00;;;;;;;;;;5098480;28;20507;-83
2021/08/24 09:14:09;;;;;;;5.07;3.65;;;;;;;;;;5098873;28;20032;-84
2021/08/24 09:16:35;;;;;;;;;;;;;;;;;;5099851;28;20017;-84
2021/08/24 09:19:03;;;;;;;8.65;3.88;;;;;;;;;;5098149;28;19958;-78
2021/08/24 09:21:31;;;;;;;3.92;3.50;;;;;;;;;;5098487;28;20479;-79
2021/08/24 09:23:57;;;;;;;4.25;3.95;;;;;;;;;;5099210;28;20074;-79
2021/08/24 09:26:43;;;;;;;4.03;3.72;;;;;;;;;;5098615;28;20025;-79
2021/08/24 09:29:09;;;;;;;7.75;4.35;;;;;;;;;;5082557;28;20016;-79
2021/08/24 09:31:35;;;;;;;7.85;5.28;;;;;;;;;;5097053;28;20107;-79
2021/08/24 09:34:02;;;;;;;4.38;3.90;;;;;;;;;;5097731;28;20028;-78
2021/08/24 09:36:28;;;;;;;4.15;3.75;;;;;;;;;;5097480;28;20074;-74
2021/08/24 09:38:55;;;;;;;7.85;3.25;;;;;;;;;;5097403;28;20024;-77
2021/08/24 09:41:24;;;;;;;6.55;3.15;;;;;;;;;;5090653;28;20028;-76
2021/08/24 09:43:50;;;;;;;9.48;3.60;;;;;;;;;;5092980;28;20024;-78
2021/08/24 09:46:36;;;;;;;3.22;2.90;;;;;;;;;;5097391;28;20035;-75
2021/08/24 09:49:04;;;;;;;5.55;3.60;;;;;;;;;;5082622;28;20372;-77
2021/08/24 09:51:46;;;;;;;3.72;3.33;;;;;;;;;;5096973;28;20020;-77
2021/08/24 09:54:12;;;;;;;;;;;;;;;;;;5096451;28;20024;-79
2021/08/24 09:56:40;;;;;;;4.22;3.25;;;;;;;;;;5096786;28;20357;-78
2021/08/24 09:59:06;;;;;;;7.63;3.72;;;;;;;;;;5096254;28;20131;-73
2021/08/24 10:01:48;;;;;;;3.55;3.25;;;;;;;;;;5096211;28;20359;-76
2021/08/24 10:04:14;;;;;;;3.47;3.17;;;;;;;;;;5096159;28;20027;-77
2021/08/24 10:06:52;;;;;;;10.27;4.25;;;;;;;;;;5098296;28;20016;-82
2021/08/24 10:09:24;;;;;;;6.40;5.07;;;;;;;;;;5096210;28;20028;-74
2021/08/24 10:11:50;;;;;;;19.65;17.52;;;;;;;;;;5097066;28;20020;-78
2021/08/24 10:14:24;;;;;;;5.60;4.20;;;;;;;;;;5094895;28;20032;-73
2021/08/24 10:16:51;;;;;;;8.13;5.47;;;;;;;;;;5095602;28;20020;-73
2021/08/24 10:19:18;;;;;;;6.90;5.30;;;;;;;;;;5096373;28;20035;-74
2021/08/24 10:21:52;;;;;;;10.40;5.28;;;;;;;;;;5096376;28;20035;-77
2021/08/24 10:24:35;;;;;;;7.95;5.05;;;;;;;;;;5097100;28;20069;-77
2021/08/24 10:27:04;;;;;;;12.30;11.18;;;;;;;;;;5095024;28;20016;-74
2021/08/24 10:29:32;;;;;;;9.27;8.32;;;;;;;;;;5095370;28;20024;-75
2021/08/24 10:32:02;;;;;;;10.25;5.72;;;;;;;;;;5095944;28;20024;-75
2021/08/24 10:34:44;;;;;;;5.63;5.13;;;;;;;;;;5096066;28;20069;-74
2021/08/24 10:37:30;;;;;;;4.95;4.32;;;;;;;;;;5097332;28;20020;-77
2021/08/24 10:40:16;;;;;;;8.90;4.90;;;;;;;;;;5081972;28;20469;-75
2021/08/24 10:42:43;;;;;;;7.70;5.80;;;;;;;;;;5081437;28;20456;-76
2021/08/24 10:45:26;;;;;;;7.05;5.95;;;;;;;;;;5094373;28;20028;-78
2021/08/24 10:47:53;;;;;;;6.97;5.10;;;;;;;;;;5093171;28;20028;-77
2021/08/24 10:50:20;;;;;;;11.48;9.07;;;;;;;;;;5093856;28;20028;-78
2021/08/24 10:52:50;;;;;;;7.82;5.53;;;;;;;;;;5094727;28;20024;-77
2021/08/24 10:55:20;;;;;;;9.68;8.80;;;;;;;;;;5092937;28;20438;-76
2021/08/24 10:57:49;;;;;;;4.15;3.85;;;;;;;;;;5094191;28;20100;-75
2021/08/24 11:00:37;;;;;;;5.20;4.70;;;;;;;;;;5093785;28;20063;-75
2021/08/24 11:03:23;;;;;;;7.78;5.03;;;;;;;;;;5079637;28;20078;-74
2021/08/24 11:06:01;;;;;;;7.38;6.30;;;;;;;;;;5079195;28;20111;-75
2021/08/24 11:08:47;;;;;;;5.75;4.80;;;;;;;;;;5099188;28;20042;-76
2021/08/24 11:11:33;;;;;;;6.03;4.80;;;;;;;;;;5097255;28;20020;-76
2021/08/24 11:14:18;;;;;;;6.80;5.95;;;;;;;;;;5082237;28;20039;-78
2021/08/24 11:17:04;;;;;;;3.75;3.45;;;;;;;;;;5082312;28;20016;-78
2021/08/24 11:19:34;;;;;;;4.50;4.13;;;;;;;;;;5082344;28;20079;-78
2021/08/24 11:22:08;;;;;;;4.10;3.70;;;;;;;;;;5110793;28;20384;-79
2021/08/24 11:24:47;;;;;;;4.85;3.90;;;;;;;;;;5117474;28;20125;-79
2021/08/24 11:27:33;;;;;;;6.65;4.22;;;;;;;;;;5116807;28;20073;-76
2021/08/24 11:30:11;;;;;;;4.55;4.15;;;;;;;;;;5101659;28;20378;-77
2021/08/24 11:32:45;;;;;;;5.97;3.53;;;;;;;;;;5108822;28;20127;-73
2021/08/24 11:35:23;;;;;;;3.92;3.55;;;;;;;;;;5109734;28;20031;-76
2021/08/24 11:38:05;;;;;;;11.40;4.10;;;;;;;;;;5116428;28;20026;-75
2021/08/24 11:40:38;;;;;;;3.80;3.45;;;;;;;;;;5098340;28;20469;-75
2021/08/24 11:43:04;;;;;;;2.90;2.70;;;;;;;;;;5094702;28;20060;-74
2021/08/24 11:45:35;;;;;;;4.47;3.22;;;;;;;;;;5095059;28;20032;-74
2021/08/24 11:48:02;;;;;;;4.35;3.13;;;;;;;;;;5095690;28;20110;-77
2021/08/24 11:50:32;;;;;;;5.90;3.17;;;;;;;;;;5095435;28;20054;-75
2021/08/24 11:53:06;;;;;;;4.50;2.90;;;;;;;;;;5096672;28;20032;-77
2021/08/24 11:55:34;;;;;;;3.53;3.15;;;;;;;;;;5095871;28;20055;-76
2021/08/24 11:58:10;;;;;;;3.90;3.28;;;;;;;;;;5095626;28;20024;-74
2021/08/24 12:00:36;;;;;;;3.35;2.45;;;;;;;;;;5077210;28;20456;-76
2021/08/24 12:03:08;;;;;;;3.03;2.67;;;;;;;;;;5076063;28;20021;-78
2021/08/24 12:05:34;;;;;;;;;;;;;;;;;;5076150;28;20016;-77
2021/08/24 12:08:02;;;;;;;8.65;2.92;;;;;;;;;;5076297;28;19904;-77
2021/08/24 12:10:32;;;;;;;3.22;2.50;;;;;;;;;;5091893;28;20032;-81
2021/08/24 12:13:01;;;;;;;2.80;2.60;;;;;;;;;;5078227;28;20017;-80
2021/08/24 12:15:31;;;;;;;2.40;2.03;;;;;;;;;;5097028;28;20024;-77
2021/08/24 12:18:06;;;;;;;2.97;2.40;;;;;;;;;;5097216;28;20024;-76
2021/08/24 12:20:37;;;;;;;7.30;2.55;;;;;;;;;;5113936;28;20038;-78
2021/08/24 12:23:03;;;;;;;2.65;2.13;;;;;;;;;;5102695;28;20030;-73
2021/08/24 12:25:44;;;;;;;3.20;2.30;;;;;;;;;;5094762;28;20020;-75
2021/08/24 12:28:30;;;;;;;4.38;2.50;;;;;;;;;;5094633;28;20032;-73
2021/08/24 12:31:09;;;;;;;3.65;1.88;;;;;;;;;;5078628;28;20262;-75
2021/08/24 12:33:40;;;;;;;4.20;2.05;;;;;;;;;;5095412;28;20034;-80
2021/08/24 12:36:26;;;;;;;2.30;2.10;;;;;;;;;;5109422;28;20031;-77
2021/08/24 12:38:54;;;;;;;2.30;2.10;;;;;;;;;;5100171;28;20104;-78
2021/08/24 12:41:41;;;;;;;4.65;4.25;;;;;;;;;;5117243;28;20075;-77
2021/08/24 12:44:20;;;;;;;1.45;1.27;;;;;;;;;;5101472;28;20404;-76
2021/08/24 12:46:48;;;;;;;2.90;1.85;;;;;;;;;;5116804;28;20051;-77
2021/08/24 12:49:34;;;;;;;1.67;1.58;;;;;;;;;;5115535;28;20023;-77
2021/08/24 12:52:04;;;;;;;2.17;1.98;;;;;;;;;;5101806;28;20023;-78
2021/08/24 12:54:30;;;;;;;1.83;1.73;;;;;;;;;;5119162;28;20536;-78
2021/08/24 12:57:16;;;;;;;2.13;1.60;;;;;;;;;;5120742;28;20048;-78
2021/08/24 12:59:44;;;;;;;1.80;1.65;;;;;;;;;;5096137;28;20380;-76
2021/08/24 13:02:12;;;;;;;1.38;1.27;;;;;;;;;;5098224;28;20031;-79
2021/08/24 13:04:38;;;;;;;1.58;1.30;;;;;;;;;;5092481;28;20031;-79
2021/08/24 13:07:24;;;;;;;3.58;1.70;;;;;;;;;;5097589;28;20025;-77
2021/08/24 13:09:51;;;;;;;17.13;1.98;;;;;;;;;;5084690;28;20373;-75
2021/08/24 13:12:20;;;;;;;1.48;1.38;;;;;;;;;;5098784;28;20055;-81
2021/08/24 13:14:50;;;;;;;4.18;1.30;;;;;;;;;;5100200;28;20028;-77
2021/08/24 13:17:17;;;;;;;1.60;1.45;;;;;;;;;;5099327;28;20020;-80
2021/08/24 13:19:46;;;;;;;7.45;1.40;;;;;;;;;;5099521;28;20111;-78
2021/08/24 13:22:19;;;;;;;7.15;1.73;;;;;;;;;;5097658;28;20056;-77
2021/08/24 13:24:45;;;;;;;1.92;1.23;;;;;;;;;;5097543;28;20024;-78
2021/08/24 13:27:29;;;;;;;3.25;1.50;;;;;;;;;;5099855;28;20028;-73
2021/08/24 13:29:55;;;;;;;1.77;1.60;;;;;;;;;;5097254;28;20028;-73
2021/08/24 13:32:38;;;;;;;2.55;1.92;;;;;;;;;;5097950;28;20020;-75
2021/08/24 13:35:05;;;;;;;4.97;1.63;;;;;;;;;;5097250;28;20059;-77
2021/08/24 13:37:32;;;;;;;2.10;1.90;;;;;;;;;;5098302;28;20016;-78
2021/08/24 13:40:03;;;;;;;1.65;1.52;;;;;;;;;;5091779;28;20036;-76
2021/08/24 13:42:30;;;;;;;1.60;1.50;;;;;;;;;;5099305;28;20028;-79
2021/08/24 13:44:56;;;;;;;1.67;1.50;;;;;;;;;;5091213;28;20020;-81
2021/08/24 13:47:22;;;;;;;2.53;2.15;;;;;;;;;;5098989;28;20024;-80
2021/08/24 13:49:49;;;;;;;4.60;1.48;;;;;;;;;;5099386;28;20043;-85
2021/08/24 13:52:36;;;;;;;2.10;1.35;;;;;;;;;;5099022;28;20016;-83
2021/08/24 13:55:02;;;;;;;2.15;1.45;;;;;;;;;;5080758;28;20035;-76
2021/08/24 13:57:29;;;;;;;15.40;1.77;;;;;;;;;;5092418;28;20668;-74
2021/08/24 13:59:57;;;;;;;4.45;1.60;;;;;;;;;;5096304;28;20030;-74
2021/08/24 14:02:24;;;;;;;5.65;2.13;;;;;;;;;;5096285;28;20457;-73
2021/08/24 14:04:50;;;;;;;1.83;1.67;;;;;;;;;;5095994;28;20028;-73
2021/08/24 14:07:21;;;;;;;2.00;1.60;;;;;;;;;;5095234;28;20020;-72
2021/08/24 14:09:48;;;;;;;5.10;1.92;;;;;;;;;;5096139;28;20028;-71
2021/08/24 14:12:22;;;;;;;2.75;2.33;;;;;;;;;;5096229;28;20028;-70
2021/08/24 14:14:51;;;;;;;3.58;2.10;;;;;;;;;;5095240;28;20022;-74
2021/08/24 14:17:36;;;;;;;3.33;1.73;;;;;;;;;;5093369;28;20481;-73
2021/08/24 14:20:03;;;;;;;7.10;2.50;;;;;;;;;;5104200;28;20036;-76
2021/08/24 14:22:29;;;;;;;2.53;1.88;;;;;;;;;;5110408;28;20024;-74
2021/08/24 14:24:55;;;;;;;3.60;2.42;;;;;;;;;;5104269;28;20073;-72
2021/08/24 14:27:21;;;;;;;1.45;1.35;;;;;;;;;;5116702;28;20016;-73
2021/08/24 14:29:48;;;;;;;3.80;2.25;;;;;;;;;;5113516;28;20035;-74
2021/08/24 14:32:30;;;;;;;1.77;1.65;;;;;;;;;;5096054;28;20528;-75
2021/08/24 14:34:56;;;;;;;5.93;2.13;;;;;;;;;;5095088;28;20400;-75
2021/08/24 14:37:23;;;;;;;2.38;2.17;;;;;;;;;;5095604;28;20024;-74
2021/08/24 14:39:57;;;;;;;4.38;2.10;;;;;;;;;;5091426;28;20061;-74
2021/08/24 14:42:26;;;;;;;2.83;2.05;;;;;;;;;;5089150;28;20503;-75
2021/08/24 14:44:52;;;;;;;4.72;2.30;;;;;;;;;;5093399;28;20024;-75
2021/08/24 14:47:34;;;;;;;1.95;1.60;;;;;;;;;;5095096;28;20499;-74
2021/08/24 14:50:00;;;;;;;3.30;2.85;;;;;;;;;;5095717;28;20381;-73
2021/08/24 14:52:27;;;;;;;5.05;2.28;;;;;;;;;;5095379;28;20020;-71
2021/08/24 14:54:55;;;;;;;3.80;3.35;;;;;;;;;;5100651;28;20157;-74